createdAt,value
2018-12-30T00:00:24.076Z,3.10
2018-12-30T00:02:52.648Z,3.10
2018-12-30T00:05:21.461Z,3.20
2018-12-30T00:07:49.998Z,3.20
2018-12-30T00:10:18.653Z,3.20
2018-12-30T00:12:47.051Z,3.20
2018-12-30T00:15:15.729Z,3.20
2018-12-30T00:17:44.289Z,3.20
2018-12-30T00:20:12.772Z,3.20
2018-12-30T00:22:41.486Z,3.20
2018-12-30T00:25:09.914Z,3.20
2018-12-30T00:27:38.229Z,3.20
2018-12-30T00:30:08.308Z,3.20
2018-12-30T00:32:36.676Z,3.20
2018-12-30T00:35:05.911Z,3.20
2018-12-30T00:37:34.403Z,3.20
2018-12-30T00:40:02.920Z,3.20
2018-12-30T00:42:31.289Z,3.20
2018-12-30T00:45:00.001Z,3.20
2018-12-30T00:47:28.430Z,3.20
2018-12-30T00:49:56.740Z,3.30
2018-12-30T00:52:25.124Z,3.30
2018-12-30T00:54:53.715Z,3.20
2018-12-30T00:57:22.363Z,3.20
2018-12-30T00:59:50.844Z,3.20
2018-12-30T01:02:19.270Z,3.30
2018-12-30T01:04:47.656Z,3.30
2018-12-30T01:07:16.009Z,3.30
2018-12-30T01:09:44.395Z,3.30
2018-12-30T01:12:13.181Z,3.30
2018-12-30T01:14:41.977Z,3.20
2018-12-30T01:17:10.352Z,3.20
2018-12-30T01:19:39.011Z,3.20
2018-12-30T01:22:07.311Z,3.20
2018-12-30T01:24:35.670Z,3.20
2018-12-30T01:27:04.159Z,3.30
2018-12-30T01:29:32.745Z,3.20
2018-12-30T01:32:01.100Z,3.20
2018-12-30T01:34:29.452Z,3.20
2018-12-30T01:36:57.838Z,3.30
2018-12-30T01:39:26.462Z,3.20
2018-12-30T01:41:54.882Z,3.20
2018-12-30T01:44:23.291Z,3.00
2018-12-30T01:46:51.683Z,3.00
2018-12-30T01:49:20.150Z,3.00
2018-12-30T01:51:48.524Z,3.10
2018-12-30T01:54:17.454Z,3.00
2018-12-30T01:56:45.865Z,3.00
2018-12-30T01:59:14.171Z,3.00
2018-12-30T02:01:42.558Z,3.00
2018-12-30T02:04:12.218Z,3.00
2018-12-30T02:06:41.064Z,3.00
2018-12-30T02:09:09.622Z,3.00
2018-12-30T02:11:38.022Z,3.00
2018-12-30T02:14:06.465Z,3.00
2018-12-30T02:16:34.990Z,3.10
2018-12-30T02:19:03.398Z,3.10
2018-12-30T02:21:31.671Z,3.00
2018-12-30T02:23:59.986Z,3.10
2018-12-30T02:26:28.658Z,3.20
2018-12-30T02:28:57.195Z,3.20
2018-12-30T02:31:25.636Z,3.20
2018-12-30T02:33:54.280Z,3.20
2018-12-30T02:36:22.606Z,3.30
2018-12-30T02:38:51.083Z,3.30
2018-12-30T02:41:19.995Z,3.30
2018-12-30T02:43:48.432Z,3.30
2018-12-30T02:46:16.891Z,3.30
2018-12-30T02:48:45.402Z,3.30
2018-12-30T02:51:13.766Z,3.30
2018-12-30T02:53:42.535Z,3.40
2018-12-30T02:56:10.915Z,3.40
2018-12-30T02:58:39.200Z,3.40
2018-12-30T03:01:09.163Z,3.50
2018-12-30T03:03:37.432Z,3.50
2018-12-30T03:06:05.874Z,3.50
2018-12-30T03:08:34.324Z,3.50
2018-12-30T03:11:02.848Z,3.50
2018-12-30T03:13:31.292Z,3.50
2018-12-30T03:15:59.712Z,3.50
2018-12-30T03:18:28.094Z,3.50
2018-12-30T03:20:56.886Z,3.50
2018-12-30T03:23:25.165Z,3.30
2018-12-30T03:25:53.490Z,3.40
2018-12-30T03:28:21.991Z,3.40
2018-12-30T03:30:50.467Z,3.40
2018-12-30T03:33:18.751Z,3.40
2018-12-30T03:35:47.035Z,3.40
2018-12-30T03:38:15.363Z,3.40
2018-12-30T03:40:43.754Z,3.50
2018-12-30T03:43:12.037Z,3.50
2018-12-30T03:45:40.312Z,3.50
2018-12-30T03:48:08.695Z,3.50
2018-12-30T03:50:37.147Z,3.50
2018-12-30T03:53:05.676Z,3.60
2018-12-30T03:55:33.972Z,3.50
2018-12-30T03:58:02.507Z,3.60
2018-12-30T04:00:31.032Z,3.60
2018-12-30T04:02:59.506Z,3.70
2018-12-30T04:05:27.901Z,3.60
2018-12-30T04:07:56.182Z,3.70
2018-12-30T04:10:24.686Z,3.60
2018-12-30T04:12:53.061Z,3.70
2018-12-30T04:15:21.449Z,3.70
2018-12-30T04:17:50.941Z,3.60
2018-12-30T04:20:19.304Z,3.60
2018-12-30T04:22:47.595Z,3.60
2018-12-30T04:25:16.082Z,3.70
2018-12-30T04:27:44.405Z,3.70
2018-12-30T04:30:12.714Z,3.70
2018-12-30T04:32:41.186Z,3.70
2018-12-30T04:35:09.595Z,3.70
2018-12-30T04:37:38.310Z,3.80
2018-12-30T04:40:06.677Z,3.80
2018-12-30T04:42:34.955Z,3.70
2018-12-30T04:45:03.297Z,3.80
2018-12-30T04:47:31.784Z,3.80
2018-12-30T04:50:00.092Z,3.80
2018-12-30T04:52:28.527Z,3.80
2018-12-30T04:54:58.149Z,3.80
2018-12-30T04:57:28.696Z,3.80
2018-12-30T04:59:56.983Z,3.80
2018-12-30T05:02:25.302Z,3.80
2018-12-30T05:04:53.747Z,3.80
2018-12-30T05:07:22.246Z,3.80
2018-12-30T05:09:50.759Z,3.90
2018-12-30T05:12:19.057Z,3.90
2018-12-30T05:14:47.427Z,3.90
2018-12-30T05:17:15.752Z,3.90
2018-12-30T05:19:44.109Z,3.90
2018-12-30T05:22:12.683Z,3.90
2018-12-30T05:24:40.957Z,3.90
2018-12-30T05:27:09.386Z,3.90
2018-12-30T05:29:37.791Z,4.00
2018-12-30T05:32:06.142Z,3.90
2018-12-30T05:34:34.667Z,4.00
2018-12-30T05:37:03.100Z,4.00
2018-12-30T05:39:31.681Z,4.00
2018-12-30T05:42:00.137Z,4.00
2018-12-30T05:44:32.267Z,4.00
2018-12-30T05:47:00.569Z,4.00
2018-12-30T05:49:28.908Z,4.10
2018-12-30T05:51:57.313Z,4.00
2018-12-30T05:54:25.885Z,4.00
2018-12-30T05:56:54.158Z,4.10
2018-12-30T05:59:22.676Z,4.10
2018-12-30T06:01:51.031Z,4.10
2018-12-30T06:04:19.354Z,4.10
2018-12-30T06:06:47.867Z,4.10
2018-12-30T06:09:16.372Z,4.10
2018-12-30T06:11:44.849Z,4.10
2018-12-30T06:14:13.293Z,4.10
2018-12-30T06:16:41.622Z,4.10
2018-12-30T06:19:10.003Z,4.10
2018-12-30T06:21:38.644Z,4.20
2018-12-30T06:24:06.918Z,4.20
2018-12-30T06:26:35.222Z,4.20
2018-12-30T06:29:03.579Z,4.20
2018-12-30T06:31:31.954Z,4.20
2018-12-30T06:34:00.288Z,4.20
2018-12-30T06:36:28.604Z,4.20
2018-12-30T06:38:57.124Z,4.20
2018-12-30T06:41:25.505Z,4.20
2018-12-30T06:43:53.830Z,4.20
2018-12-30T06:46:22.189Z,4.20
2018-12-30T06:48:50.475Z,4.20
2018-12-30T06:51:18.827Z,4.20
2018-12-30T06:53:47.102Z,4.30
2018-12-30T06:56:15.419Z,4.30
2018-12-30T06:58:43.700Z,4.30
2018-12-30T07:01:12.174Z,4.30
2018-12-30T07:03:40.620Z,4.30
2018-12-30T07:06:09.010Z,4.30
2018-12-30T07:08:37.385Z,4.30
2018-12-30T07:11:05.692Z,4.40
2018-12-30T07:13:34.068Z,4.40
2018-12-30T07:16:02.408Z,4.40
2018-12-30T07:18:30.703Z,4.40
2018-12-30T07:20:59.471Z,4.40
2018-12-30T07:23:27.792Z,4.40
2018-12-30T07:25:56.080Z,4.40
2018-12-30T07:28:24.386Z,4.40
2018-12-30T07:30:52.649Z,4.40
2018-12-30T07:33:23.092Z,4.50
2018-12-30T07:35:51.153Z,4.50
2018-12-30T07:38:19.455Z,4.50
2018-12-30T07:40:47.762Z,4.50
2018-12-30T07:43:16.046Z,4.50
2018-12-30T07:45:44.448Z,4.50
2018-12-30T07:48:12.943Z,4.50
2018-12-30T07:50:41.268Z,4.50
2018-12-30T07:53:13.708Z,4.60
2018-12-30T07:55:39.771Z,4.60
2018-12-30T07:58:08.243Z,4.60
2018-12-30T08:00:36.706Z,4.60
2018-12-30T08:03:05.033Z,4.60
2018-12-30T08:05:33.555Z,4.60
2018-12-30T08:08:01.960Z,4.60
2018-12-30T08:10:30.350Z,4.60
2018-12-30T08:12:58.631Z,4.60
2018-12-30T08:15:27.090Z,4.60
2018-12-30T08:17:55.367Z,4.70
2018-12-30T08:20:23.897Z,4.70
2018-12-30T08:22:52.345Z,4.60
2018-12-30T08:25:20.732Z,4.70
2018-12-30T08:27:53.229Z,4.70
2018-12-30T08:30:21.699Z,4.70
2018-12-30T08:32:50.026Z,4.70
2018-12-30T08:35:18.376Z,4.70
2018-12-30T08:37:46.680Z,4.70
2018-12-30T08:40:15.271Z,4.70
2018-12-30T08:42:43.587Z,4.70
2018-12-30T08:45:11.964Z,4.80
2018-12-30T08:47:40.298Z,4.80
2018-12-30T08:50:08.575Z,4.80
2018-12-30T08:52:36.997Z,4.80
2018-12-30T08:55:05.282Z,4.80
2018-12-30T08:57:33.647Z,4.80
2018-12-30T09:00:02.347Z,4.80
2018-12-30T09:02:30.764Z,4.80
2018-12-30T09:04:59.083Z,4.80
2018-12-30T09:07:27.466Z,4.80
2018-12-30T09:09:56.025Z,4.80
2018-12-30T09:12:24.348Z,4.80
2018-12-30T09:14:52.665Z,4.90
2018-12-30T09:17:21.025Z,5.10
2018-12-30T09:19:49.303Z,5.10
2018-12-30T09:22:17.841Z,5.10
2018-12-30T09:24:46.151Z,5.10
2018-12-30T09:27:14.705Z,5.10
2018-12-30T09:29:43.224Z,5.10
2018-12-30T09:32:13.122Z,5.10
2018-12-30T09:34:41.436Z,5.10
2018-12-30T09:37:09.710Z,5.30
2018-12-30T09:39:38.009Z,5.50
2018-12-30T09:42:06.377Z,5.60
2018-12-30T09:44:34.697Z,5.60
2018-12-30T09:47:02.990Z,5.60
2018-12-30T09:49:31.293Z,5.60
2018-12-30T09:51:59.661Z,5.50
2018-12-30T09:54:28.241Z,5.50
2018-12-30T09:56:56.877Z,5.50
2018-12-30T09:59:25.341Z,5.50
2018-12-30T10:01:53.712Z,5.50
2018-12-30T10:04:22.135Z,5.50
2018-12-30T10:06:50.472Z,5.50
2018-12-30T10:09:18.774Z,5.40
2018-12-30T10:11:47.242Z,5.40
2018-12-30T10:14:15.673Z,5.40
2018-12-30T10:16:44.675Z,5.40
2018-12-30T10:19:13.042Z,5.40
2018-12-30T10:21:41.587Z,5.30
2018-12-30T10:24:09.935Z,5.30
2018-12-30T10:26:38.402Z,5.30
2018-12-30T10:29:06.836Z,5.20
2018-12-30T10:31:35.269Z,5.20
2018-12-30T10:34:03.543Z,5.20
2018-12-30T10:36:32.127Z,5.10
2018-12-30T10:39:00.451Z,5.10
2018-12-30T10:41:28.784Z,4.90
2018-12-30T10:43:57.140Z,4.90
2018-12-30T10:46:25.476Z,4.90
2018-12-30T10:48:53.919Z,4.70
2018-12-30T10:51:22.270Z,4.70
2018-12-30T10:53:50.821Z,4.80
2018-12-30T10:56:19.127Z,4.80
2018-12-30T10:58:47.405Z,4.80
2018-12-30T11:01:15.718Z,4.60
2018-12-30T11:03:44.311Z,4.60
2018-12-30T11:06:13.907Z,4.70
2018-12-30T11:08:42.310Z,4.80
2018-12-30T11:11:10.658Z,4.90
2018-12-30T11:13:39.226Z,5.00
2018-12-30T11:16:07.743Z,5.00
2018-12-30T11:18:36.426Z,5.10
2018-12-30T11:21:04.997Z,5.10
2018-12-30T11:23:33.376Z,5.00
2018-12-30T11:26:01.839Z,4.90
2018-12-30T11:28:30.193Z,4.90
2018-12-30T11:30:58.768Z,4.90
2018-12-30T11:33:27.361Z,4.90
2018-12-30T11:35:56.065Z,4.90
2018-12-30T11:38:24.574Z,4.90
2018-12-30T11:40:53.239Z,4.90
2018-12-30T11:43:21.731Z,4.80
2018-12-30T11:45:50.077Z,4.90
2018-12-30T11:48:18.348Z,4.80
2018-12-30T11:50:46.675Z,4.90
2018-12-30T11:53:14.947Z,4.90
2018-12-30T11:55:43.419Z,5.00
2018-12-30T11:58:11.673Z,5.00
2018-12-30T12:00:40.049Z,5.00
2018-12-30T12:03:08.450Z,5.10
2018-12-30T12:05:37.062Z,5.00
2018-12-30T12:08:05.795Z,4.90
2018-12-30T12:10:34.100Z,4.80
2018-12-30T12:13:02.369Z,4.90
2018-12-30T12:15:30.847Z,5.00
2018-12-30T12:17:59.150Z,5.00
2018-12-30T12:20:27.452Z,4.90
2018-12-30T12:22:55.738Z,4.90
2018-12-30T12:25:24.051Z,4.80
2018-12-30T12:27:52.369Z,4.80
2018-12-30T12:30:20.684Z,4.90
2018-12-30T12:32:49.123Z,4.90
2018-12-30T12:35:17.594Z,5.00
2018-12-30T12:37:45.881Z,4.90
2018-12-30T12:40:14.219Z,4.90
2018-12-30T12:42:42.847Z,4.80
2018-12-30T12:45:11.123Z,4.80
2018-12-30T12:47:39.542Z,4.90
2018-12-30T12:50:07.814Z,4.90
2018-12-30T12:52:36.109Z,4.90
2018-12-30T12:55:04.577Z,4.90
2018-12-30T12:57:32.882Z,4.90
2018-12-30T13:00:01.317Z,5.00
2018-12-30T13:02:29.784Z,4.90
2018-12-30T13:04:58.228Z,4.90
2018-12-30T13:07:26.534Z,4.90
2018-12-30T13:09:54.996Z,5.00
2018-12-30T13:12:23.461Z,5.10
2018-12-30T13:14:51.745Z,5.10
2018-12-30T13:17:20.036Z,5.10
2018-12-30T13:19:48.831Z,5.10
2018-12-30T13:22:17.249Z,5.10
2018-12-30T13:24:45.651Z,5.20
2018-12-30T13:27:14.045Z,5.30
2018-12-30T13:29:42.308Z,5.30
2018-12-30T13:32:10.596Z,5.40
2018-12-30T13:34:39.314Z,5.40
2018-12-30T13:37:07.640Z,5.40
2018-12-30T13:39:35.937Z,5.40
2018-12-30T13:42:04.454Z,5.50
2018-12-30T13:44:32.925Z,5.50
2018-12-30T13:47:02.014Z,5.50
2018-12-30T13:49:30.678Z,5.50
2018-12-30T13:51:59.004Z,5.50
2018-12-30T13:54:27.333Z,5.60
2018-12-30T13:56:55.745Z,5.60
2018-12-30T13:59:24.124Z,5.60
2018-12-30T14:01:52.558Z,5.60
2018-12-30T14:04:21.915Z,5.70
2018-12-30T14:06:50.670Z,5.70
2018-12-30T14:09:19.273Z,5.70
2018-12-30T14:11:47.797Z,5.70
2018-12-30T14:14:16.086Z,5.70
2018-12-30T14:16:44.401Z,5.70
2018-12-30T14:19:12.866Z,5.80
2018-12-30T14:21:41.180Z,5.80
2018-12-30T14:24:09.466Z,5.70
2018-12-30T14:26:37.755Z,5.70
2018-12-30T14:29:06.206Z,5.70
2018-12-30T14:31:34.502Z,5.80
2018-12-30T14:34:02.817Z,5.70
2018-12-30T14:36:31.183Z,5.80
2018-12-30T14:38:59.462Z,5.80
2018-12-30T14:41:27.958Z,5.80
2018-12-30T14:43:56.431Z,5.80
2018-12-30T14:46:24.755Z,5.80
2018-12-30T14:48:53.211Z,5.80
2018-12-30T14:51:21.580Z,5.80
2018-12-30T14:53:50.000Z,5.80
2018-12-30T14:56:18.481Z,5.80
2018-12-30T14:58:46.935Z,5.80
2018-12-30T15:01:15.334Z,5.80
2018-12-30T15:03:43.627Z,5.70
2018-12-30T15:06:12.166Z,5.70
2018-12-30T15:08:40.478Z,5.70
2018-12-30T15:11:08.762Z,5.70
2018-12-30T15:13:37.222Z,5.70
2018-12-30T15:16:05.543Z,5.70
2018-12-30T15:18:33.908Z,5.70
2018-12-30T15:21:02.262Z,5.60
2018-12-30T15:23:30.755Z,5.60
2018-12-30T15:25:59.189Z,5.70
2018-12-30T15:28:27.582Z,5.60
2018-12-30T15:30:55.934Z,5.60
2018-12-30T15:33:24.325Z,5.60
2018-12-30T15:35:52.678Z,5.60
2018-12-30T15:38:20.991Z,5.60
2018-12-30T15:40:49.434Z,5.60
2018-12-30T15:43:17.818Z,5.50
2018-12-30T15:45:46.101Z,5.50
2018-12-30T15:48:14.749Z,5.50
2018-12-30T15:50:43.116Z,5.50
2018-12-30T15:53:11.427Z,5.40
2018-12-30T15:55:39.975Z,5.50
2018-12-30T15:58:08.300Z,5.60
2018-12-30T16:00:36.645Z,5.60
2018-12-30T16:03:04.690Z,5.60
2018-12-30T16:05:33.155Z,5.50
2018-12-30T16:08:01.622Z,5.40
2018-12-30T16:10:30.027Z,5.40
2018-12-30T16:12:58.458Z,5.40
2018-12-30T16:15:27.160Z,5.40
2018-12-30T16:17:55.478Z,5.40
2018-12-30T16:20:23.882Z,5.40
2018-12-30T16:22:52.337Z,5.30
2018-12-30T16:25:27.086Z,5.40
2018-12-30T16:27:50.888Z,5.40
2018-12-30T16:30:19.232Z,5.30
2018-12-30T16:32:47.549Z,5.30
2018-12-30T16:35:15.865Z,5.30
2018-12-30T16:37:44.245Z,5.30
2018-12-30T16:40:12.541Z,5.30
2018-12-30T16:42:40.933Z,5.30
2018-12-30T16:45:09.228Z,5.30
2018-12-30T16:47:41.809Z,5.30
2018-12-30T16:50:08.110Z,5.20
2018-12-30T16:52:36.480Z,5.20
2018-12-30T16:55:05.136Z,5.20
2018-12-30T16:57:33.677Z,5.20
2018-12-30T17:00:02.034Z,5.20
2018-12-30T17:02:30.356Z,5.20
2018-12-30T17:04:59.039Z,5.20
2018-12-30T17:07:27.380Z,5.20
2018-12-30T17:09:55.743Z,5.20
2018-12-30T17:12:24.129Z,5.30
2018-12-30T17:14:52.486Z,5.30
2018-12-30T17:17:20.813Z,5.30
2018-12-30T17:19:49.118Z,5.30
2018-12-30T17:22:17.397Z,5.30
2018-12-30T17:24:45.787Z,5.30
2018-12-30T17:27:14.225Z,5.30
2018-12-30T17:29:42.620Z,5.30
2018-12-30T17:32:19.362Z,5.20
2018-12-30T17:34:48.164Z,5.20
2018-12-30T17:37:16.441Z,5.20
2018-12-30T17:39:44.764Z,5.20
2018-12-30T17:42:13.039Z,5.20
2018-12-30T17:44:41.353Z,5.20
2018-12-30T17:47:09.639Z,5.20
2018-12-30T17:49:38.001Z,5.20
2018-12-30T17:52:06.278Z,5.20
2018-12-30T17:54:34.865Z,5.20
2018-12-30T17:57:03.208Z,5.20
2018-12-30T17:59:31.479Z,5.20
2018-12-30T18:01:59.807Z,5.20
2018-12-30T18:04:28.270Z,5.20
2018-12-30T18:06:56.726Z,5.20
2018-12-30T18:09:25.013Z,5.20
2018-12-30T18:11:53.400Z,5.20
2018-12-30T18:14:21.658Z,5.20
2018-12-30T18:16:49.986Z,5.20
2018-12-30T18:19:18.267Z,5.20
2018-12-30T18:21:46.575Z,5.20
2018-12-30T18:24:14.910Z,5.20
2018-12-30T18:26:43.527Z,5.20
2018-12-30T18:29:11.858Z,5.20
2018-12-30T18:31:40.357Z,5.20
2018-12-30T18:34:08.828Z,5.20
2018-12-30T18:36:37.227Z,5.20
2018-12-30T18:39:07.046Z,5.20
2018-12-30T18:41:35.498Z,5.10
2018-12-30T18:44:03.882Z,5.20
2018-12-30T18:46:32.401Z,5.20
2018-12-30T18:49:00.756Z,5.20
2018-12-30T18:51:29.505Z,5.10
2018-12-30T18:53:57.928Z,5.10
2018-12-30T18:56:26.275Z,5.10
2018-12-30T18:58:54.750Z,5.10
2018-12-30T19:01:23.137Z,5.10
2018-12-30T19:03:51.468Z,5.20
2018-12-30T19:06:19.848Z,5.10
2018-12-30T19:08:48.174Z,5.10
2018-12-30T19:11:16.466Z,5.10
2018-12-30T19:13:45.040Z,5.10
2018-12-30T19:16:13.306Z,5.10
2018-12-30T19:18:42.125Z,5.10
2018-12-30T19:21:10.710Z,5.10
2018-12-30T19:23:39.307Z,5.00
2018-12-30T19:26:14.268Z,5.00
2018-12-30T19:28:37.990Z,5.00
2018-12-30T19:31:06.381Z,5.00
2018-12-30T19:33:34.695Z,5.00
2018-12-30T19:36:03.095Z,5.00
2018-12-30T19:38:31.561Z,4.90
2018-12-30T19:41:00.063Z,4.90
2018-12-30T19:43:28.443Z,4.90
2018-12-30T19:45:56.781Z,4.80
2018-12-30T19:48:25.068Z,4.90
2018-12-30T19:50:54.197Z,4.90
2018-12-30T19:53:22.662Z,4.80
2018-12-30T19:55:51.044Z,4.90
2018-12-30T19:58:19.394Z,4.80
2018-12-30T20:00:48.010Z,4.90
2018-12-30T20:03:16.500Z,4.80
2018-12-30T20:05:44.805Z,4.80
2018-12-30T20:08:14.377Z,4.80
2018-12-30T20:10:42.779Z,4.80
2018-12-30T20:13:11.123Z,4.80
2018-12-30T20:15:39.527Z,4.80
2018-12-30T20:18:07.962Z,4.80
2018-12-30T20:20:36.370Z,4.80
2018-12-30T20:23:04.695Z,4.80
2018-12-30T20:25:33.122Z,4.80
2018-12-30T20:28:01.504Z,4.90
2018-12-30T20:30:29.797Z,4.80
2018-12-30T20:32:58.175Z,4.90
2018-12-30T20:35:26.541Z,4.90
2018-12-30T20:37:55.074Z,4.90
2018-12-30T20:40:23.380Z,4.90
2018-12-30T20:42:51.773Z,4.90
2018-12-30T20:45:20.103Z,4.90
2018-12-30T20:47:48.612Z,4.90
2018-12-30T20:50:17.060Z,4.90
2018-12-30T20:52:45.450Z,4.90
2018-12-30T20:55:13.825Z,4.90
2018-12-30T20:57:42.165Z,4.90
2018-12-30T21:00:10.581Z,4.90
2018-12-30T21:02:39.038Z,5.00
2018-12-30T21:05:07.519Z,5.00
2018-12-30T21:07:35.835Z,5.00
2018-12-30T21:10:04.970Z,5.00
2018-12-30T21:12:33.390Z,5.00
2018-12-30T21:15:01.779Z,5.00
2018-12-30T21:17:30.150Z,5.00
2018-12-30T21:19:58.499Z,5.00
2018-12-30T21:22:26.794Z,5.00
2018-12-30T21:24:55.129Z,4.90
2018-12-30T21:27:23.424Z,4.90
2018-12-30T21:29:51.739Z,4.90
2018-12-30T21:32:20.030Z,4.90
2018-12-30T21:34:48.500Z,4.80
2018-12-30T21:37:16.801Z,4.80
2018-12-30T21:39:45.314Z,4.80
2018-12-30T21:42:14.050Z,4.80
2018-12-30T21:44:42.984Z,4.80
2018-12-30T21:47:12.828Z,4.90
2018-12-30T21:49:41.194Z,4.80
2018-12-30T21:52:09.836Z,4.90
2018-12-30T21:54:38.478Z,4.90
2018-12-30T21:57:06.780Z,4.90
2018-12-30T21:59:35.353Z,4.90
2018-12-30T22:02:03.927Z,4.90
2018-12-30T22:04:32.469Z,4.90
2018-12-30T22:07:00.991Z,4.90
2018-12-30T22:09:29.503Z,4.90
2018-12-30T22:11:58.105Z,4.90
2018-12-30T22:14:26.399Z,4.90
2018-12-30T22:16:54.933Z,4.90
2018-12-30T22:19:23.411Z,4.90
2018-12-30T22:21:52.502Z,4.90
2018-12-30T22:24:20.911Z,4.90
2018-12-30T22:26:49.728Z,4.90
2018-12-30T22:29:18.280Z,4.90
2018-12-30T22:31:46.794Z,4.90
2018-12-30T22:34:15.137Z,4.90
2018-12-30T22:36:43.442Z,4.90
2018-12-30T22:39:11.924Z,4.90
2018-12-30T22:41:40.325Z,4.90
2018-12-30T22:44:08.820Z,4.80
2018-12-30T22:46:37.211Z,4.90
2018-12-30T22:49:05.507Z,4.80
2018-12-30T22:51:33.894Z,4.80
2018-12-30T22:54:02.248Z,4.90
2018-12-30T22:56:30.728Z,4.80
2018-12-30T22:58:59.010Z,4.80
2018-12-30T23:01:27.461Z,4.80
2018-12-30T23:03:55.806Z,4.80
2018-12-30T23:06:24.110Z,4.80
2018-12-30T23:08:52.429Z,4.90
2018-12-30T23:11:20.704Z,4.80
2018-12-30T23:13:48.997Z,4.90
2018-12-30T23:16:17.462Z,4.80
2018-12-30T23:18:45.930Z,4.90
2018-12-30T23:21:14.237Z,4.80
2018-12-30T23:23:42.562Z,4.90
2018-12-30T23:26:10.842Z,4.80
2018-12-30T23:28:39.411Z,4.80
2018-12-30T23:31:07.955Z,4.80
2018-12-30T23:33:36.465Z,4.80
2018-12-30T23:36:05.024Z,4.80
2018-12-30T23:38:33.339Z,4.70
2018-12-30T23:41:01.905Z,4.60
2018-12-30T23:43:30.306Z,4.60
2018-12-30T23:45:58.902Z,4.60
2018-12-30T23:48:27.283Z,4.60
2018-12-30T23:50:55.921Z,4.60
2018-12-30T23:53:24.363Z,4.70
2018-12-30T23:55:52.690Z,4.70
2018-12-30T23:58:21.035Z,4.70
